createdAt,value
2019-03-16T00:00:03.085Z,9.9
2019-03-16T00:15:03.503Z,10
2019-03-16T00:30:02.855Z,10
2019-03-16T00:45:03.139Z,10.1
2019-03-16T01:00:02.513Z,10.1
2019-03-16T01:15:02.796Z,10.2
2019-03-16T01:30:03.218Z,10.1
2019-03-16T01:45:02.473Z,10.1
2019-03-16T02:00:02.821Z,10.2
2019-03-16T02:15:03.069Z,10.1
2019-03-16T02:30:03.477Z,10.1
2019-03-16T02:45:02.739Z,10.2
2019-03-16T03:00:02.995Z,10.2
2019-03-16T03:15:03.326Z,10.2
2019-03-16T03:30:02.838Z,10.1
2019-03-16T03:45:03.118Z,10.1
2019-03-16T04:00:02.520Z,10.1
2019-03-16T04:15:02.792Z,10.1
2019-03-16T04:30:03.222Z,9.9
2019-03-16T04:45:02.510Z,9.7
2019-03-16T05:00:03.055Z,9.9
2019-03-16T05:15:03.342Z,9.9
2019-03-16T05:30:02.723Z,9.9
2019-03-16T05:45:03.075Z,9.9
2019-03-16T06:00:03.406Z,9.9
2019-03-16T06:15:03.398Z,9.9
2019-03-16T06:30:02.898Z,10.1
2019-03-16T06:45:03.330Z,10.2
2019-03-16T07:00:02.877Z,10.3
2019-03-16T07:15:03.167Z,10.4
2019-03-16T07:30:02.453Z,10.4
2019-03-16T07:45:07.819Z,10.4
2019-03-16T08:00:03.165Z,10.4
2019-03-16T08:15:03.459Z,10.7
2019-03-16T08:30:02.791Z,10.9
2019-03-16T08:45:03.325Z,11.1
2019-03-16T09:00:02.581Z,11.2
2019-03-16T09:15:02.900Z,11.2
2019-03-16T09:30:03.221Z,11.4
2019-03-16T09:45:02.474Z,11.7
2019-03-16T10:00:03.386Z,12.1
2019-03-16T10:15:03.523Z,12.4
2019-03-16T10:30:03.122Z,12.8
2019-03-16T10:45:03.401Z,13.1
2019-03-16T11:00:02.737Z,13.1
2019-03-16T11:15:02.834Z,13.9
2019-03-16T11:30:03.185Z,13.6
2019-03-16T11:45:02.513Z,14
2019-03-16T12:00:02.853Z,13.6
2019-03-16T12:15:03.150Z,14
2019-03-16T12:30:02.499Z,14.1
2019-03-16T12:45:03.015Z,13.4
2019-03-16T13:00:02.659Z,13.7
2019-03-16T13:15:03.065Z,13.9
2019-03-16T13:30:03.367Z,13.8
2019-03-16T13:45:02.689Z,14
2019-03-16T14:00:11.504Z,13.9
2019-03-16T14:15:02.715Z,14
2019-03-16T14:30:03.378Z,14.1
2019-03-16T14:45:02.667Z,14.3
2019-03-16T15:00:02.972Z,13.9
2019-03-16T15:15:03.301Z,13.8
2019-03-16T15:30:02.745Z,13.7
2019-03-16T15:45:03.062Z,13.4
2019-03-16T16:00:03.318Z,13.6
2019-03-16T16:15:02.546Z,14.1
2019-03-16T16:30:02.976Z,14
2019-03-16T16:45:03.253Z,13.4
2019-03-16T17:00:02.582Z,12.7
2019-03-16T17:15:02.904Z,11.9
2019-03-16T17:30:03.195Z,10.8
2019-03-16T17:45:02.513Z,10.1
2019-03-16T18:00:02.736Z,9.1
2019-03-16T18:15:03.045Z,8.8
2019-03-16T18:30:02.653Z,8.3
2019-03-16T18:45:02.971Z,7.9
2019-03-16T19:00:02.495Z,7.3
2019-03-16T19:15:02.723Z,7
2019-03-16T19:30:03.126Z,6.8
2019-03-16T19:45:03.440Z,6.1
2019-03-16T20:00:02.891Z,5.9
2019-03-16T20:15:03.215Z,5.6
2019-03-16T20:30:02.570Z,5.4
2019-03-16T20:45:02.862Z,5
2019-03-16T21:00:03.366Z,4.9
2019-03-16T21:15:02.608Z,4.5
2019-03-16T21:30:03.231Z,4.7
2019-03-16T21:45:02.724Z,4.3
2019-03-16T22:00:03.018Z,4.1
2019-03-16T22:15:03.362Z,4
2019-03-16T22:30:02.701Z,3.6
2019-03-16T22:45:02.928Z,3.5
2019-03-16T23:00:03.219Z,3.2
2019-03-16T23:15:02.492Z,3.2
2019-03-16T23:30:02.889Z,2.8
2019-03-16T23:45:03.204Z,2.4
